Time;durP1;ratioP1;P1;durP2;ratioP2;P2;SDS_P1;SDS_P2;PMS_P1;PMS_P2;Temp;Humidity;BMP_temperature;BMP_pressure;BME280_temperature;BME280_humidity;BME280_pressure;Samples;Min_cycle;Max_cycle;Signal;HPM_P1;HPM_P2
2024/01/09 00:02:14;;;;;;;3.58;1.77;;;;;;;22.71;35.29;100208.22;4973945;28;20030;-46
2024/01/09 00:04:40;;;;;;;3.70;1.90;;;;;;;22.69;35.39;100200.44;4979378;28;20031;-43
2024/01/09 00:07:05;;;;;;;3.88;1.90;;;;;;;22.69;35.24;100203.19;4976859;28;20023;-44
2024/01/09 00:09:33;;;;;;;3.92;1.98;;;;;;;22.72;35.30;100204.25;4975158;28;20040;-44
2024/01/09 00:11:59;;;;;;;3.95;1.90;;;;;;;22.72;35.29;100204.25;4971573;28;20027;-44
2024/01/09 00:14:24;;;;;;;3.85;1.80;;;;;;;22.71;35.20;100202.72;4972120;28;20026;-44
2024/01/09 00:16:49;;;;;;;3.67;1.80;;;;;;;22.73;35.29;100211.28;4965991;28;20031;-43
2024/01/09 00:19:16;;;;;;;3.33;1.70;;;;;;;22.72;35.26;100212.50;4968014;28;20508;-45
2024/01/09 00:21:41;;;;;;;3.92;1.92;;;;;;;22.73;35.32;100216.03;4963295;28;20536;-43
2024/01/09 00:24:07;;;;;;;4.05;1.90;;;;;;;22.71;35.33;100207.47;4964088;28;20031;-46
2024/01/09 00:26:39;;;;;;;4.03;1.80;;;;;;;22.70;35.29;100206.69;4968091;28;20022;-45
2024/01/09 00:29:05;;;;;;;3.38;1.70;;;;;;;22.69;35.26;100222.44;4975453;28;20487;-44
2024/01/09 00:31:30;;;;;;;4.43;2.20;;;;;;;22.69;35.19;100213.44;4972471;28;20034;-45
2024/01/09 00:33:55;;;;;;;4.10;2.00;;;;;;;22.67;35.31;100213.88;4974190;28;20393;-46
2024/01/09 00:36:21;;;;;;;3.83;1.90;;;;;;;22.68;35.31;100217.41;4972539;28;20083;-43
2024/01/09 00:38:46;;;;;;;4.20;1.95;;;;;;;22.68;35.26;100212.66;4969137;28;20030;-47
2024/01/09 00:41:14;;;;;;;4.10;1.98;;;;;;;22.67;35.32;100219.38;4969173;28;20030;-45
2024/01/09 00:43:40;;;;;;;3.88;2.00;;;;;;;22.68;35.37;100204.41;4964698;28;20473;-44
2024/01/09 00:46:05;;;;;;;4.20;1.90;;;;;;;22.67;35.27;100213.88;4967394;28;20031;-49
2024/01/09 00:48:30;;;;;;;3.85;1.98;;;;;;;22.69;35.24;100208.69;4962548;28;20031;-44
2024/01/09 00:50:56;;;;;;;4.10;2.03;;;;;;;22.69;35.32;100216.94;4964224;28;20433;-43
2024/01/09 00:53:21;;;;;;;3.83;1.80;;;;;;;22.68;35.26;100214.66;4972608;28;20040;-44
2024/01/09 00:55:47;;;;;;;4.20;2.20;;;;;;;22.70;35.21;100217.72;4972144;28;20027;-44
2024/01/09 00:58:12;;;;;;;3.90;1.90;;;;;;;22.69;35.27;100213.44;4969987;28;20517;-46
2024/01/09 01:00:37;;;;;;;4.07;2.05;;;;;;;22.69;35.21;100205.94;4970048;28;20027;-43
2024/01/09 01:03:03;;;;;;;4.15;2.10;;;;;;;22.69;35.24;100216.19;4968409;28;20023;-45
2024/01/09 01:05:28;;;;;;;4.10;1.92;;;;;;;22.69;35.27;100218.94;4968257;28;20042;-44
2024/01/09 01:07:54;;;;;;;4.10;2.00;;;;;;;22.65;35.39;100218.31;4963523;28;20090;-44
2024/01/09 01:10:19;;;;;;;3.67;1.80;;;;;;;22.67;35.40;100224.13;4964856;28;20385;-44
2024/01/09 01:12:44;;;;;;;4.07;2.00;;;;;;;22.66;35.41;100223.38;4960408;28;20030;-44
2024/01/09 01:15:10;;;;;;;3.55;1.80;;;;;;;22.64;35.29;100216.81;4968262;28;20023;-43
2024/01/09 01:17:35;;;;;;;3.85;1.95;;;;;;;22.66;35.31;100217.09;4971585;28;20038;-46
2024/01/09 01:20:00;;;;;;;3.75;1.80;;;;;;;22.67;35.27;100218.63;4963706;28;20031;-44
2024/01/09 01:22:26;;;;;;;3.75;1.92;;;;;;;22.64;35.39;100230.56;4970696;28;20036;-47
2024/01/09 01:24:51;;;;;;;4.30;2.15;;;;;;;22.65;35.25;100229.34;4965676;28;20481;-44
2024/01/09 01:27:16;;;;;;;4.00;2.08;;;;;;;22.63;35.34;100237.28;4969890;28;20034;-46
2024/01/09 01:29:42;;;;;;;3.42;1.90;;;;;;;22.64;35.38;100231.31;4964068;28;20030;-46
2024/01/09 01:32:10;;;;;;;3.83;2.00;;;;;;;22.66;35.26;100228.09;4977937;28;20029;-47
2024/01/09 01:34:35;;;;;;;;;;;;;;;22.65;35.27;100238.34;4964500;28;20019;-44
2024/01/09 01:37:00;;;;;;;3.42;1.90;;;;;;;22.66;35.29;100239.13;4960933;28;20401;-44
2024/01/09 01:39:26;;;;;;;3.65;1.90;;;;;;;22.64;35.32;100236.06;4977337;28;20031;-44
2024/01/09 01:41:51;;;;;;;4.03;2.10;;;;;;;22.63;35.27;100234.53;4971619;28;20031;-43
2024/01/09 01:44:17;;;;;;;4.22;2.10;;;;;;;22.64;35.33;100236.06;4971695;28;20473;-43
2024/01/09 01:46:43;;;;;;;3.80;1.80;;;;;;;22.63;35.24;100248.28;4974270;28;20033;-45
2024/01/09 01:49:08;;;;;;;4.15;2.05;;;;;;;22.62;35.35;100244.78;4966705;28;20502;-45
2024/01/09 01:51:34;;;;;;;4.00;1.90;;;;;;;22.61;35.17;100240.50;4964942;28;20038;-46
2024/01/09 01:53:59;;;;;;;4.28;2.20;;;;;;;22.62;35.36;100241.25;4964278;28;20031;-42
2024/01/09 01:56:24;;;;;;;3.33;1.75;;;;;;;22.62;35.18;100235.75;4965355;28;20440;-44
2024/01/09 01:58:50;;;;;;;4.28;2.00;;;;;;;22.64;35.23;100236.06;4967191;28;20031;-47
2024/01/09 02:01:15;;;;;;;3.63;1.92;;;;;;;22.62;35.18;100235.75;4968547;28;20026;-48
2024/01/09 02:03:40;;;;;;;3.78;1.90;;;;;;;22.63;35.21;100235.28;4954205;28;20514;-44
2024/01/09 02:06:06;;;;;;;4.10;2.00;;;;;;;22.66;35.14;100236.38;4958794;28;20026;-44
2024/01/09 02:08:31;;;;;;;3.95;2.10;;;;;;;22.64;35.29;100233.31;4970925;28;20512;-43
2024/01/09 02:10:57;;;;;;;3.95;1.90;;;;;;;22.65;35.27;100235.59;4970508;28;20022;-44
2024/01/09 02:13:22;;;;;;;3.70;1.88;;;;;;;22.62;35.21;100227.50;4952861;28;20026;-43
2024/01/09 02:15:47;;;;;;;4.03;1.98;;;;;;;22.64;35.41;100236.06;4967699;28;20022;-44
2024/01/09 02:18:13;;;;;;;3.80;2.00;;;;;;;22.62;35.33;100230.25;4964826;28;20035;-46
2024/01/09 02:20:38;;;;;;;3.70;2.05;;;;;;;22.65;35.16;100234.84;4963899;28;20538;-44
2024/01/09 02:23:04;;;;;;;3.65;1.90;;;;;;;22.62;35.30;100233.78;4959482;28;20023;-45
2024/01/09 02:25:29;;;;;;;3.90;2.00;;;;;;;22.60;35.29;100227.19;4966576;28;20477;-44
2024/01/09 02:28:14;;;;;;;3.70;1.85;;;;;;;22.59;35.24;100225.66;4972310;28;20022;-44
2024/01/09 02:30:39;;;;;;;3.88;1.88;;;;;;;22.61;35.24;100226.75;4974102;28;20023;-44
2024/01/09 02:33:06;;;;;;;4.13;2.10;;;;;;;22.62;35.27;100230.25;4969932;28;20109;-44
2024/01/09 02:35:32;;;;;;;3.87;2.00;;;;;;;22.60;35.25;100229.94;4953303;28;20544;-50
2024/01/09 02:37:57;;;;;;;3.88;1.90;;;;;;;22.60;35.31;100236.22;4967854;28;20275;-44
2024/01/09 02:40:23;;;;;;;4.18;2.10;;;;;;;22.62;35.21;100233.00;4971922;28;20030;-44
2024/01/09 02:42:48;;;;;;;3.67;1.90;;;;;;;22.60;35.27;100230.72;4966948;28;20030;-42
2024/01/09 02:45:13;;;;;;;4.40;2.20;;;;;;;22.60;35.16;100233.47;4969758;28;20183;-44
2024/01/09 02:47:39;;;;;;;4.30;2.15;;;;;;;22.58;35.29;100233.16;4965998;28;20026;-47
2024/01/09 02:50:05;;;;;;;3.97;1.80;;;;;;;22.62;35.22;100230.25;4965808;28;20019;-43
2024/01/09 02:52:30;;;;;;;4.40;2.28;;;;;;;22.65;35.15;100221.06;4975631;28;20029;-44
2024/01/09 02:54:55;;;;;;;4.07;1.98;;;;;;;22.60;35.24;100227.97;4974340;28;20100;-44
2024/01/09 02:57:21;;;;;;;4.30;2.10;;;;;;;22.59;35.22;100226.44;4977991;28;20014;-44
2024/01/09 02:59:46;;;;;;;3.97;1.95;;;;;;;22.61;35.21;100225.97;4969438;28;20042;-44
2024/01/09 03:02:11;;;;;;;4.25;2.17;;;;;;;22.61;35.14;100225.97;4969818;28;20031;-44
2024/01/09 03:04:36;;;;;;;4.40;2.13;;;;;;;22.61;35.24;100225.97;4972106;28;20027;-44
2024/01/09 03:07:02;;;;;;;4.22;2.08;;;;;;;22.60;35.24;100224.44;4972911;28;20613;-45
2024/01/09 03:09:27;;;;;;;3.90;1.90;;;;;;;22.58;35.30;100226.94;4966963;28;20042;-45
2024/01/09 03:11:53;;;;;;;4.65;2.40;;;;;;;22.57;35.22;100217.16;4963060;28;20035;-44
2024/01/09 03:14:19;;;;;;;4.32;2.20;;;;;;;22.61;35.24;100225.97;4975105;28;20089;-44
2024/01/09 03:16:50;;;;;;;3.72;1.83;;;;;;;22.60;35.22;100221.69;4980392;28;20033;-44
2024/01/09 03:19:15;;;;;;;4.47;1.95;;;;;;;22.57;35.27;100217.91;4967876;28;20129;-43
2024/01/09 03:21:41;;;;;;;3.97;2.08;;;;;;;22.58;35.18;100221.44;4970602;28;20102;-46
2024/01/09 03:24:06;;;;;;;3.80;1.92;;;;;;;22.56;35.32;100210.88;4966298;28;20031;-43
2024/01/09 03:26:31;;;;;;;3.63;1.90;;;;;;;22.58;35.20;100215.91;4962816;28;20049;-44
2024/01/09 03:28:58;;;;;;;4.35;2.25;;;;;;;22.58;35.23;100221.44;4962881;28;20033;-45
2024/01/09 03:31:23;;;;;;;4.00;2.00;;;;;;;22.57;35.16;100217.16;4965162;28;20026;-47
2024/01/09 03:33:49;;;;;;;4.32;2.15;;;;;;;22.55;35.25;100211.34;4964979;28;20022;-43
2024/01/09 03:36:14;;;;;;;4.45;2.35;;;;;;;22.57;35.20;100211.66;4963315;28;20110;-47
2024/01/09 03:38:43;;;;;;;3.90;2.03;;;;;;;22.55;35.37;100214.09;4976550;28;20070;-43
2024/01/09 03:41:08;;;;;;;4.13;2.17;;;;;;;22.58;35.16;100216.66;4971533;28;20019;-44
2024/01/09 03:43:34;;;;;;;4.35;2.17;;;;;;;22.57;35.39;100206.91;4961652;28;20023;-43
2024/01/09 03:45:59;;;;;;;4.28;2.10;;;;;;;22.59;35.21;100211.91;4968903;28;20078;-44
2024/01/09 03:48:24;;;;;;;4.00;2.00;;;;;;;22.58;35.06;100210.41;4964639;28;20381;-43
2024/01/09 03:50:50;;;;;;;4.00;2.13;;;;;;;22.56;35.23;100210.13;4962783;28;20018;-46
2024/01/09 03:53:15;;;;;;;4.35;2.20;;;;;;;22.56;35.20;100219.13;4966614;28;20041;-44
2024/01/09 03:55:41;;;;;;;4.15;2.03;;;;;;;22.56;35.23;100221.13;4965152;28;20047;-44
2024/01/09 03:58:07;;;;;;;4.20;2.20;;;;;;;22.58;35.08;100211.16;4961582;28;20026;-44
2024/01/09 04:00:32;;;;;;;4.07;2.20;;;;;;;22.59;35.16;100206.41;4971001;28;20030;-44
2024/01/09 04:02:57;;;;;;;4.32;2.30;;;;;;;22.58;35.15;100202.16;4974250;28;20018;-44
2024/01/09 04:05:23;;;;;;;4.32;2.00;;;;;;;22.57;35.18;100197.88;4966803;28;20039;-44
2024/01/09 04:07:48;;;;;;;4.20;2.15;;;;;;;22.57;35.18;100204.16;4967041;28;20019;-44
2024/01/09 04:10:13;;;;;;;4.22;2.00;;;;;;;22.58;35.18;100204.91;4963284;28;20023;-43
2024/01/09 04:12:39;;;;;;;3.17;1.80;;;;;;;22.55;35.07;100205.84;4966535;28;20026;-44
2024/01/09 04:15:05;;;;;;;4.15;2.20;;;;;;;22.56;35.11;100201.88;4966313;28;20070;-44
2024/01/09 04:17:30;;;;;;;4.10;2.15;;;;;;;22.55;35.19;100205.84;4964359;28;20564;-46
2024/01/09 04:19:56;;;;;;;4.07;1.90;;;;;;;22.56;35.34;100196.34;4962692;28;20484;-44
2024/01/09 04:22:21;;;;;;;4.40;2.20;;;;;;;22.55;35.11;100201.09;4962354;28;20193;-43
2024/01/09 04:24:46;;;;;;;4.20;2.30;;;;;;;22.55;35.14;100206.59;4971587;28;20023;-46
2024/01/09 04:27:12;;;;;;;4.22;2.13;;;;;;;22.54;35.14;100212.56;4969650;28;20469;-45
2024/01/09 04:29:37;;;;;;;3.83;1.92;;;;;;;22.53;35.26;100208.28;4968860;28;20025;-45
2024/01/09 04:32:02;;;;;;;4.18;2.15;;;;;;;22.54;35.13;100209.81;4970566;28;20033;-44
2024/01/09 04:34:28;;;;;;;3.80;1.85;;;;;;;22.55;35.14;100206.59;4971546;28;20385;-43
2024/01/09 04:36:53;;;;;;;3.80;2.00;;;;;;;22.53;35.21;100214.56;4962995;28;20015;-44
2024/01/09 04:39:19;;;;;;;4.10;2.20;;;;;;;22.57;34.98;100204.16;4968576;28;20023;-43
2024/01/09 04:41:44;;;;;;;4.00;2.10;;;;;;;22.56;35.21;100212.88;4965929;28;20076;-44
2024/01/09 04:44:09;;;;;;;4.32;2.20;;;;;;;22.55;35.23;100203.84;4961056;28;20041;-45
2024/01/09 04:46:35;;;;;;;4.35;2.28;;;;;;;22.55;35.21;100206.59;4959053;28;20481;-45
2024/01/09 04:49:03;;;;;;;4.05;2.03;;;;;;;22.57;35.10;100208.91;4957568;28;20077;-45
2024/01/09 04:51:29;;;;;;;4.05;2.20;;;;;;;22.55;35.08;100214.84;4968288;28;20038;-44
2024/01/09 04:53:54;;;;;;;4.03;2.10;;;;;;;22.54;35.17;100207.06;4965789;28;20023;-43
2024/01/09 04:56:19;;;;;;;4.32;2.22;;;;;;;22.51;35.16;100210.75;4962008;28;20417;-43
2024/01/09 04:58:45;;;;;;;4.20;2.10;;;;;;;22.51;35.20;100210.75;4964315;28;20032;-44
2024/01/09 05:01:11;;;;;;;4.20;2.22;;;;;;;22.51;35.13;100211.50;4963853;28;20035;-46
2024/01/09 05:03:36;;;;;;;4.03;2.20;;;;;;;22.54;35.12;100204.31;4963827;28;20019;-47
2024/01/09 05:06:02;;;;;;;4.30;2.20;;;;;;;22.50;35.18;100209.97;4961854;28;20049;-44
2024/01/09 05:08:27;;;;;;;4.47;2.20;;;;;;;22.50;35.27;100209.22;4961928;28;20031;-43
2024/01/09 05:10:52;;;;;;;4.20;2.10;;;;;;;22.53;35.17;100211.81;4960908;28;20018;-44
2024/01/09 05:13:18;;;;;;;3.90;2.00;;;;;;;22.51;35.24;100211.50;4967930;28;20027;-43
2024/01/09 05:15:43;;;;;;;4.47;2.30;;;;;;;22.52;35.25;100206.75;4968530;28;20381;-44
2024/01/09 05:18:08;;;;;;;4.40;2.30;;;;;;;22.55;35.17;100211.34;4968510;28;20035;-44
2024/01/09 05:20:34;;;;;;;4.53;2.30;;;;;;;22.54;35.19;100209.81;4962552;28;20025;-44
2024/01/09 05:22:59;;;;;;;4.07;2.13;;;;;;;22.53;35.19;100216.53;4964186;28;20093;-43
2024/01/09 05:25:25;;;;;;;4.68;2.10;;;;;;;22.54;35.12;100205.06;4964028;28;20442;-46
2024/01/09 05:27:50;;;;;;;4.22;2.28;;;;;;;22.53;35.14;100213.78;4965360;28;20019;-43
2024/01/09 05:30:16;;;;;;;4.03;2.10;;;;;;;22.53;35.21;100208.28;4959747;28;20027;-43
2024/01/09 05:32:41;;;;;;;4.20;2.10;;;;;;;22.51;35.19;100205.22;4963866;28;20394;-44
2024/01/09 05:35:08;;;;;;;4.15;2.20;;;;;;;22.48;35.12;100209.66;4959536;28;20031;-45
2024/01/09 05:37:33;;;;;;;4.35;2.30;;;;;;;22.49;35.20;100211.19;4965979;28;20027;-44
2024/01/09 05:39:59;;;;;;;4.70;2.38;;;;;;;22.50;35.17;100211.97;4974870;28;20034;-47
2024/01/09 05:42:24;;;;;;;4.60;2.40;;;;;;;22.48;35.22;100212.41;4962585;28;20026;-45
2024/01/09 05:44:49;;;;;;;4.03;2.20;;;;;;;22.48;35.23;100212.41;4965100;28;20039;-47
2024/01/09 05:47:15;;;;;;;4.20;2.20;;;;;;;22.48;35.19;100215.16;4969307;28;20019;-44
2024/01/09 05:49:40;;;;;;;4.05;2.10;;;;;;;22.52;35.09;100218.53;4962570;28;20015;-44
2024/01/09 05:52:05;;;;;;;4.35;2.17;;;;;;;22.53;35.09;100220.06;4962007;28;20033;-44
2024/01/09 05:54:31;;;;;;;4.57;2.10;;;;;;;22.52;35.07;100223.25;4963741;28;20035;-43
2024/01/09 05:56:56;;;;;;;4.57;2.50;;;;;;;22.49;35.22;100215.94;4961426;28;20027;-42
2024/01/09 05:59:21;;;;;;;4.40;2.22;;;;;;;22.49;35.12;100208.44;4959870;28;20047;-44
2024/01/09 06:01:47;;;;;;;4.35;2.25;;;;;;;22.48;35.14;100209.66;4966226;28;20485;-46
2024/01/09 06:04:12;;;;;;;4.18;2.28;;;;;;;22.48;35.23;100215.16;4971237;28;20031;-45
2024/01/09 06:06:37;;;;;;;4.25;2.30;;;;;;;22.45;35.22;100220.81;4971733;28;20033;-45
2024/01/09 06:09:03;;;;;;;3.67;2.00;;;;;;;22.48;35.16;100228.16;4976268;28;20385;-45
2024/01/09 06:11:29;;;;;;;4.18;2.28;;;;;;;22.43;35.17;100226.78;4967134;28;20035;-46
2024/01/09 06:13:55;;;;;;;4.20;2.20;;;;;;;22.44;35.16;100228.31;4967055;28;20027;-43
2024/01/09 06:16:24;;;;;;;4.03;2.20;;;;;;;22.46;35.15;100222.34;4962917;28;20050;-45
2024/01/09 06:18:49;;;;;;;4.05;2.05;;;;;;;22.43;35.28;100223.28;4964483;28;20027;-43
2024/01/09 06:21:14;;;;;;;4.13;2.10;;;;;;;22.44;35.26;100224.81;4962567;28;20475;-44
2024/01/09 06:23:40;;;;;;;4.30;2.30;;;;;;;22.47;35.15;100226.63;4966642;28;20026;-44
2024/01/09 06:26:05;;;;;;;4.70;2.50;;;;;;;22.47;35.08;100229.38;4972427;28;20019;-46
2024/01/09 06:28:31;;;;;;;4.55;2.20;;;;;;;22.45;35.19;100224.34;4967612;28;20040;-44
2024/01/09 06:30:56;;;;;;;4.28;2.20;;;;;;;22.47;35.20;100229.38;4968649;28;20106;-44
2024/01/09 06:33:22;;;;;;;3.92;2.00;;;;;;;22.47;35.10;100226.63;4968403;28;20035;-45
2024/01/09 06:35:47;;;;;;;3.92;2.00;;;;;;;22.45;35.23;100223.56;4968698;28;20466;-43
2024/01/09 06:38:13;;;;;;;4.57;2.25;;;;;;;22.46;35.13;100219.59;4964590;28;20026;-45
2024/01/09 06:40:38;;;;;;;4.65;2.40;;;;;;;22.42;35.22;100225.25;4967412;28;20027;-46
2024/01/09 06:43:05;;;;;;;4.40;2.47;;;;;;;22.44;35.11;100222.81;4963906;28;20049;-42
2024/01/09 06:45:31;;;;;;;4.78;2.50;;;;;;;22.44;35.19;100217.31;4970193;28;20110;-44
2024/01/09 06:47:56;;;;;;;4.60;2.28;;;;;;;22.42;34.94;100216.25;4969707;28;20106;-44
2024/01/09 06:50:22;;;;;;;4.00;2.28;;;;;;;22.44;35.18;100216.56;4971198;28;20531;-42
2024/01/09 06:52:47;;;;;;;4.57;2.35;;;;;;;22.46;35.16;100216.84;4964922;28;20023;-45
2024/01/09 06:55:13;;;;;;;4.20;2.22;;;;;;;22.42;35.22;100222.50;4965781;28;20042;-47
2024/01/09 06:57:38;;;;;;;4.50;2.40;;;;;;;22.42;35.23;100219.00;4969705;28;20033;-46
2024/01/09 07:00:04;;;;;;;4.40;2.42;;;;;;;22.44;34.99;100216.56;4965776;28;20031;-46
2024/01/09 07:02:30;;;;;;;4.32;2.20;;;;;;;22.43;35.13;100220.53;4963966;28;20031;-46
2024/01/09 07:04:56;;;;;;;4.20;2.30;;;;;;;22.43;35.11;100224.03;4965997;28;20092;-43
2024/01/09 07:07:22;;;;;;;4.15;2.28;;;;;;;22.41;35.23;100222.97;4964084;28;20030;-44
2024/01/09 07:09:47;;;;;;;4.32;2.17;;;;;;;22.47;35.23;100226.63;4965096;28;20102;-44
2024/01/09 07:12:13;;;;;;;4.10;2.20;;;;;;;22.47;34.88;100226.63;4961129;28;20051;-45
2024/01/09 07:14:38;;;;;;;4.35;2.40;;;;;;;22.46;35.05;100225.88;4970522;28;20046;-45
2024/01/09 07:17:03;;;;;;;4.40;2.40;;;;;;;22.44;35.15;100233.06;4970917;28;20023;-47
2024/01/09 07:19:29;;;;;;;4.55;2.42;;;;;;;22.44;35.21;100233.06;4966661;28;20445;-44
2024/01/09 07:21:55;;;;;;;4.55;2.35;;;;;;;22.43;35.10;100232.28;4969086;28;20018;-45
2024/01/09 07:24:20;;;;;;;4.18;2.25;;;;;;;22.41;35.16;100233.97;4966035;28;20032;-45
2024/01/09 07:26:45;;;;;;;4.18;2.35;;;;;;;22.42;35.10;100235.50;4967453;28;20545;-45
2024/01/09 07:29:16;;;;;;;4.35;2.30;;;;;;;22.42;35.14;100235.50;4963994;28;20045;-46
2024/01/09 07:31:41;;;;;;;4.32;2.30;;;;;;;22.41;35.13;100229.22;4964846;28;20418;-47
2024/01/09 07:34:07;;;;;;;4.60;2.50;;;;;;;22.41;35.08;100233.97;4962324;28;20195;-46
2024/01/09 07:36:32;;;;;;;4.57;2.58;;;;;;;22.40;35.11;100235.19;4966605;28;20022;-47
2024/01/09 07:38:57;;;;;;;4.70;2.55;;;;;;;22.41;35.10;100231.22;4974005;28;20076;-44
2024/01/09 07:41:23;;;;;;;4.60;2.50;;;;;;;22.44;35.11;100233.81;4966596;28;20056;-44
2024/01/09 07:43:48;;;;;;;4.20;2.25;;;;;;;22.40;35.29;100233.22;4969411;28;20491;-45
2024/01/09 07:46:13;;;;;;;4.03;2.20;;;;;;;22.41;35.14;100236.72;4971706;28;20022;-44
2024/01/09 07:48:39;;;;;;;4.45;2.50;;;;;;;22.43;35.09;100242.53;4963865;28;20026;-46
2024/01/09 07:51:04;;;;;;;4.50;2.40;;;;;;;22.41;35.10;100234.75;4980274;28;20029;-47
2024/01/09 07:53:30;;;;;;;4.50;2.40;;;;;;;22.42;35.19;100235.50;4964852;28;20035;-43
2024/01/09 07:55:55;;;;;;;4.10;2.20;;;;;;;22.41;35.14;100247.72;4964280;28;20022;-46
2024/01/09 07:58:20;;;;;;;4.68;2.50;;;;;;;22.39;35.14;100250.16;4961212;28;20025;-44
2024/01/09 08:00:46;;;;;;;4.18;2.38;;;;;;;22.40;35.16;100248.94;4978629;28;20029;-44
2024/01/09 08:03:13;;;;;;;4.50;2.35;;;;;;;22.39;35.09;100258.41;4972781;28;20043;-46
2024/01/09 08:05:39;;;;;;;;;;;;;;;22.40;35.06;100251.69;4964174;28;20041;-45
2024/01/09 08:08:05;;;;;;;4.28;2.20;;;;;;;22.38;34.99;100251.41;4968596;28;19914;-50
2024/01/09 08:10:30;;;;;;;4.57;2.47;;;;;;;22.37;35.13;100249.91;4961735;28;20106;-46
2024/01/09 08:12:56;;;;;;;4.70;2.60;;;;;;;22.37;35.13;100255.41;4966308;28;20033;-46
2024/01/09 08:15:21;;;;;;;4.30;2.33;;;;;;;22.40;35.10;100246.19;4963721;28;20023;-44
2024/01/09 08:17:46;;;;;;;4.78;2.28;;;;;;;22.37;35.21;100247.91;4964601;28;20385;-43
2024/01/09 08:20:12;;;;;;;4.65;2.33;;;;;;;22.40;35.18;100251.69;4964195;28;20085;-44
2024/01/09 08:22:37;;;;;;;4.30;2.33;;;;;;;22.38;35.09;100251.41;4970290;28;20030;-46
2024/01/09 08:25:03;;;;;;;4.55;2.65;;;;;;;22.38;34.73;100254.94;4969889;28;20029;-44
2024/01/09 08:27:28;;;;;;;4.70;2.63;;;;;;;22.40;34.59;100257.19;4970056;28;20630;-46
2024/01/09 08:29:54;;;;;;;4.78;2.70;;;;;;;22.39;34.74;100253.69;4970976;28;20561;-43
2024/01/09 08:32:19;;;;;;;6.60;2.72;;;;;;;21.99;35.79;100253.84;4965099;28;20026;-39
2024/01/09 08:34:45;;;;;;;5.28;2.40;;;;;;;21.82;36.05;100261.63;4967928;28;20501;-38
2024/01/09 08:37:10;;;;;;;5.15;2.20;;;;;;;21.83;36.08;100262.38;4960355;28;20392;-39
2024/01/09 08:39:35;;;;;;;4.97;2.50;;;;;;;21.81;36.32;100259.31;4971387;28;20080;-39
2024/01/09 08:42:01;;;;;;;5.10;2.55;;;;;;;21.81;36.06;100259.31;4966488;28;20039;-39
